• Join FlightAware (Why Join?)
  • Login
  • US Flag 
01:51PM EDT


 

Airport Tracker/Info


-or-


 

Live Flight TrackerFlight Track Log ✈ N700QA ✈ 21-Jul-2013 ✈ KLAS - KLAX

Flight Track Log - Related Links

Times and Time Zones

All times are in EDT time to prevent confusion due to time zone crossing. See the N700QA flight status page for this flight to view local times or setup timezone preferences in your user account.

Time Position Orientation Groundspeed Altitude Reporting Facility
EDT Latitude Longitude Course Direction KTS MPH feet Rate Location/Type
09:16PM 36.0750 -115.1925 261° West 184 212 3,800  Level Los Angeles Center
09:17PM 36.0689 -115.2414 261° West 205 236 5,500 2,100 Climbing Los Angeles Center
09:18PM 36.0094 -115.2736 204° Southwest 237 273 7,800 2,040 Climbing Los Angeles Center
09:19PM 35.9389 -115.2800 184° South 245 282 9,800 2,340 Climbing Los Angeles Center
09:20PM 35.8464 -115.2828 181° South 264 304 12,600 2,400 Climbing Los Angeles Center
09:21PM 35.7672 -115.2861 182° South 274 315 14,800 1,920 Climbing Los Angeles Center
09:22PM 35.6842 -115.2922 183° South 285 328 16,600 1,800 Climbing Los Angeles Center
09:23PM 35.6194 -115.3706 225° Southwest 315 362 18,500 1,800 Climbing Los Angeles Center
09:24PM 35.5567 -115.4514 226° Southwest 321 369 20,400 1,380 Climbing Los Angeles Center
09:25PM 35.4972 -115.5361 229° Southwest 325 374 21,700 1,080 Climbing Los Angeles Center
09:26PM 35.4214 -115.6381 228° Southwest 338 389 22,900 1,140 Climbing Los Angeles Center
09:27PM 35.3544 -115.7269 227° Southwest 352 405 24,100 1,140 Climbing Los Angeles Center
09:28PM 35.2736 -115.8336 227° Southwest 355 409 25,300 900 Climbing Los Angeles Center
09:29PM 35.2025 -115.9269 227° Southwest 370 426 26,000 360 Climbing Los Angeles Center
09:30PM 35.1306 -116.0239 228° Southwest 381 438 26,100  Climbing Los Angeles Center
09:31PM 35.0528 -116.1256 227° Southwest 400 460 26,100  Level Los Angeles Center
09:32PM 34.9694 -116.2242 224° Southwest 410 472 26,100  Level Los Angeles Center
09:33PM 34.8772 -116.3133 218° Southwest 418 481 26,100  Level Los Angeles Center
09:34PM 34.7883 -116.4064 221° Southwest 419 482 26,100  Level Los Angeles Center
09:35PM 34.6983 -116.4981 220° Southwest 421 484 26,100 -180 Level Los Angeles Center
09:36PM 34.5889 -116.6108 220° Southwest 427 491 25,800 -960 Descending Los Angeles Center
09:37PM 34.4981 -116.7039 220° Southwest 428 493 24,200 -1,620 Descending Los Angeles Center
09:38PM 34.4094 -116.7953 220° Southwest 419 482 22,500 -1,620 Descending Los Angeles Center
09:40PM 34.3228 -116.8839 220° Southwest 409 471 21,000 -1,200 Descending Los Angeles Center
09:41PM 34.2344 -116.9717 219° Southwest 409 471 19,900 -900 Descending Los Angeles Center
09:42PM 34.1492 -117.0936 230° Southwest 394 453 19,000 -1,080 Descending Los Angeles Center
09:42PM 34.1167 -117.1833 246° West 376 433 18,100 -1,500 Descending Southern California TRACON
09:43PM 34.0833 -117.2833 248° West 376 433 16,700 -1,860 Descending Southern California TRACON
09:44PM 34.0500 -117.4167 253° West 353 406 14,400 -2,100 Descending Southern California TRACON
09:45PM 34.0333 -117.5333 260° West 314 361 12,300 -2,040 Descending Southern California TRACON
09:46PM 34.0167 -117.6333 259° West 390 449 10,400 -1,080 Descending Southern California TRACON
09:48PM 34.0000 -117.7333 259° West 270 311 10,100 -360 Descending Southern California TRACON
09:48PM 34.0000 -117.8167 270° West 298 343 9,700 -1,200 Descending Southern California TRACON
09:50PM 33.9833 -117.9333 260° West 302 348 7,700 -1,740 Descending Southern California TRACON
09:51PM 33.9667 -118.0333 259° West 263 303 6,100 -1,500 Descending Southern California TRACON
09:52PM 33.9667 -118.1000 270° West 218 251 4,700 -1,200 Descending Southern California TRACON
09:52PM 33.9636 -118.1397 265° West 242 278 4,300 -1,080 Descending Los Angeles Center
09:53PM 33.9547 -118.2092 261° West 223 257 3,100 -1,140 Descending Los Angeles Center
09:54PM 33.9478 -118.2761 263° West 213 245 2,000 -1,080 Descending Los Angeles Center
09:55PM 33.9417 -118.3333 263° West 192 221 1,000 -960 Descending Los Angeles Center
09:56PM 33.9472 -118.3892 277° West 203 234 100 -900 Descending Los Angeles Center
09:58PM 33.9333 -118.4000 259° West  Level FlightAware Approximate